createdAt,value
2017-08-04T00:01:34.240Z,78.80
2017-08-04T00:04:02.286Z,78.62
2017-08-04T00:06:33.946Z,78.50
2017-08-04T00:09:02.826Z,78.52
2017-08-04T00:11:31.566Z,79.16
2017-08-04T00:14:01.539Z,79.11
2017-08-04T00:16:29.251Z,79.01
2017-08-04T00:18:57.359Z,78.94
2017-08-04T00:21:25.051Z,79.07
2017-08-04T00:26:27.163Z,79.69
2017-08-04T00:28:56.517Z,79.51
2017-08-04T00:31:24.611Z,79.34
2017-08-04T00:33:52.637Z,79.28
2017-08-04T00:36:22.746Z,79.00
2017-08-04T00:38:51.440Z,79.05
2017-08-04T00:41:21.707Z,78.59
2017-08-04T00:43:52.825Z,78.43
2017-08-04T00:46:21.512Z,78.28
2017-08-04T00:48:49.975Z,77.98
2017-08-04T00:51:18.394Z,77.35
2017-08-04T00:53:48.331Z,77.10
2017-08-04T00:56:16.109Z,77.19
2017-08-04T00:58:46.429Z,77.00
2017-08-04T01:01:14.687Z,76.86
2017-08-04T01:03:42.901Z,77.00
2017-08-04T01:06:10.836Z,77.17
2017-08-04T01:08:38.903Z,77.09
2017-08-04T01:11:08.135Z,77.01
2017-08-04T01:13:38.076Z,77.13
2017-08-04T01:16:05.715Z,77.27
2017-08-04T01:18:34.500Z,77.56
2017-08-04T01:21:04.171Z,77.69
2017-08-04T01:23:33.652Z,78.00
2017-08-04T01:26:02.342Z,77.83
2017-08-04T01:28:30.136Z,78.26
2017-08-04T01:30:59.103Z,78.10
2017-08-04T01:33:27.755Z,77.90
2017-08-04T01:35:56.438Z,77.93
2017-08-04T01:38:26.364Z,77.74
2017-08-04T01:40:54.747Z,77.81
2017-08-04T01:43:23.561Z,77.74
2017-08-04T01:45:51.790Z,77.93
2017-08-04T01:48:20.970Z,78.21
2017-08-04T01:50:51.752Z,77.95
2017-08-04T01:53:19.714Z,77.91
2017-08-04T01:55:47.944Z,77.97
2017-08-04T01:58:17.027Z,78.01
2017-08-04T02:00:46.725Z,78.22
2017-08-04T02:03:19.069Z,78.39
2017-08-04T02:05:48.182Z,78.40
2017-08-04T02:08:16.512Z,79.04
2017-08-04T02:10:45.251Z,79.62
2017-08-04T02:13:16.309Z,79.80
2017-08-04T02:15:44.688Z,80.03
2017-08-04T02:18:14.454Z,80.44
2017-08-04T02:20:44.403Z,80.64
2017-08-04T02:23:13.209Z,80.84
2017-08-04T02:25:42.920Z,81.15
2017-08-04T02:28:13.626Z,81.08
2017-08-04T02:30:42.050Z,81.46
2017-08-04T02:33:10.363Z,81.53
2017-08-04T02:35:38.432Z,81.88
2017-08-04T02:38:06.988Z,81.84
2017-08-04T02:40:39.745Z,81.94
2017-08-04T02:43:09.077Z,82.05
2017-08-04T02:45:37.075Z,82.13
2017-08-04T02:48:06.833Z,82.33
2017-08-04T02:50:35.336Z,82.36
2017-08-04T02:53:03.000Z,82.57
2017-08-04T02:55:30.706Z,82.72
2017-08-04T02:57:58.464Z,82.59
2017-08-04T03:00:27.853Z,82.78
2017-08-04T03:02:56.031Z,82.81
2017-08-04T03:05:25.662Z,82.94
2017-08-04T03:07:53.882Z,82.79
2017-08-04T03:10:24.210Z,82.78
2017-08-04T03:12:53.481Z,82.78
2017-08-04T03:15:22.898Z,82.82
2017-08-04T03:17:52.104Z,82.98
2017-08-04T03:20:19.761Z,83.05
2017-08-04T03:22:47.863Z,83.18
2017-08-04T03:25:16.144Z,83.36
2017-08-04T03:27:45.588Z,83.47
2017-08-04T03:30:14.852Z,83.39
2017-08-04T03:32:42.792Z,83.25
2017-08-04T03:35:10.524Z,83.15
2017-08-04T03:37:41.626Z,83.53
2017-08-04T03:40:10.902Z,83.20
2017-08-04T03:42:39.757Z,82.71
2017-08-04T03:45:07.688Z,82.37
2017-08-04T03:47:37.557Z,81.53
2017-08-04T03:50:05.669Z,81.11
2017-08-04T03:52:36.401Z,80.56
2017-08-04T03:55:05.086Z,80.51
2017-08-04T03:57:34.106Z,80.89
2017-08-04T04:00:03.289Z,81.66
2017-08-04T04:02:32.145Z,81.82
2017-08-04T04:05:02.285Z,82.02
2017-08-04T04:07:31.692Z,82.22
2017-08-04T04:10:03.032Z,82.28
2017-08-04T04:12:31.144Z,82.49
2017-08-04T04:15:01.032Z,82.74
2017-08-04T04:17:28.728Z,82.66
2017-08-04T04:19:57.842Z,82.59
2017-08-04T04:22:26.509Z,82.54
2017-08-04T04:24:54.670Z,82.21
2017-08-04T04:27:22.738Z,81.92
2017-08-04T04:29:53.135Z,81.62
2017-08-04T04:32:21.218Z,80.42
2017-08-04T04:34:49.613Z,79.24
2017-08-04T04:37:17.544Z,77.80
2017-08-04T04:39:47.209Z,77.44
2017-08-04T04:42:17.268Z,77.54
2017-08-04T04:44:45.251Z,77.23
2017-08-04T04:47:13.333Z,76.88
2017-08-04T04:49:41.075Z,76.43
2017-08-04T04:52:09.138Z,75.95
2017-08-04T04:54:38.734Z,75.67
2017-08-04T04:57:07.579Z,75.96
2017-08-04T04:59:35.370Z,75.41
2017-08-04T05:02:03.012Z,75.39
2017-08-04T05:04:32.666Z,76.37
2017-08-04T05:07:01.226Z,75.95
2017-08-04T05:09:30.978Z,75.51
2017-08-04T05:11:59.922Z,75.30
2017-08-04T05:14:28.026Z,75.57
2017-08-04T05:16:57.486Z,75.48
2017-08-04T05:21:59.922Z,73.91
2017-08-04T05:27:01.601Z,67.33
2017-08-04T05:29:29.286Z,64.90
2017-08-04T05:31:57.445Z,64.30
2017-08-04T05:34:25.064Z,65.44
2017-08-04T05:36:53.351Z,66.58
2017-08-04T05:39:21.896Z,67.44
2017-08-04T05:41:49.989Z,68.62
2017-08-04T05:44:18.773Z,69.17
2017-08-04T05:46:46.466Z,70.53
2017-08-04T05:49:14.491Z,70.00
2017-08-04T05:51:42.149Z,69.46
2017-08-04T05:54:09.846Z,67.97
2017-08-04T05:59:10.391Z,68.70
2017-08-04T06:01:40.104Z,69.22
2017-08-04T06:04:08.623Z,68.83
2017-08-04T06:06:37.930Z,68.57
2017-08-04T06:09:07.469Z,68.28
2017-08-04T06:11:35.559Z,68.36
2017-08-04T06:14:03.639Z,68.76
2017-08-04T06:16:31.976Z,69.63
2017-08-04T06:19:01.610Z,69.34
2017-08-04T06:21:30.016Z,69.29
2017-08-04T06:23:58.818Z,69.45
2017-08-04T06:26:27.615Z,69.35
2017-08-04T06:28:56.562Z,69.24
2017-08-04T06:31:25.820Z,68.86
2017-08-04T06:33:55.523Z,68.33
2017-08-04T06:36:26.923Z,67.98
2017-08-04T06:38:54.735Z,68.61
2017-08-04T06:41:23.104Z,68.32
2017-08-04T06:43:51.501Z,67.77
2017-08-04T06:46:20.545Z,68.93
2017-08-04T06:48:48.945Z,67.43
2017-08-04T06:51:17.685Z,67.35
2017-08-04T06:53:46.834Z,66.69
2017-08-04T06:56:15.003Z,66.58
2017-08-04T06:58:42.763Z,65.84
2017-08-04T07:01:11.098Z,65.36
2017-08-04T07:03:39.124Z,66.72
2017-08-04T07:06:06.717Z,66.74
2017-08-04T07:08:34.343Z,66.90
2017-08-04T07:11:04.813Z,66.98
2017-08-04T07:13:32.455Z,66.42
2017-08-04T07:16:01.457Z,66.30
2017-08-04T07:18:29.078Z,67.71
2017-08-04T07:20:57.041Z,67.01
2017-08-04T07:23:25.170Z,66.30
2017-08-04T07:25:52.790Z,66.43
2017-08-04T07:28:21.275Z,65.90
2017-08-04T07:30:50.643Z,66.50
2017-08-04T07:33:19.116Z,67.07
2017-08-04T07:35:48.786Z,66.96
2017-08-04T07:38:16.736Z,66.95
2017-08-04T07:40:45.584Z,67.03
2017-08-04T07:43:14.470Z,67.48
2017-08-04T07:45:44.423Z,64.47
2017-08-04T07:48:12.105Z,64.10
2017-08-04T07:50:40.518Z,64.07
2017-08-04T07:53:09.926Z,63.96
2017-08-04T07:55:37.666Z,64.64
2017-08-04T07:58:07.630Z,64.86
2017-08-04T08:00:36.856Z,65.48
2017-08-04T08:03:04.568Z,64.37
2017-08-04T08:05:33.040Z,63.87
2017-08-04T08:08:00.771Z,64.70
2017-08-04T08:10:28.740Z,64.66
2017-08-04T08:12:56.400Z,64.32
2017-08-04T08:15:26.094Z,64.15
2017-08-04T08:17:53.706Z,63.72
2017-08-04T08:20:23.610Z,64.71
2017-08-04T08:22:51.562Z,64.85
2017-08-04T08:25:19.557Z,63.03
2017-08-04T08:27:48.099Z,63.99
2017-08-04T08:30:16.412Z,65.52
2017-08-04T08:32:44.690Z,63.92
2017-08-04T08:35:13.705Z,63.46
2017-08-04T08:37:41.401Z,64.76
2017-08-04T08:40:09.329Z,64.60
2017-08-04T08:42:37.028Z,64.94
2017-08-04T08:45:05.338Z,64.74
2017-08-04T08:47:33.418Z,65.33
2017-08-04T08:50:03.907Z,63.64
2017-08-04T08:52:32.425Z,64.21
2017-08-04T08:55:00.208Z,64.45
2017-08-04T08:57:28.266Z,61.51
2017-08-04T08:59:56.765Z,61.88
2017-08-04T09:02:26.172Z,63.74
2017-08-04T09:04:54.765Z,60.96
2017-08-04T09:07:23.266Z,61.36
2017-08-04T09:09:52.584Z,62.56
2017-08-04T09:12:20.255Z,62.62
2017-08-04T09:14:50.734Z,62.73
2017-08-04T09:17:19.308Z,62.85
2017-08-04T09:19:48.329Z,61.00
2017-08-04T09:22:15.933Z,60.46
2017-08-04T09:24:44.369Z,60.59
2017-08-04T09:27:13.967Z,62.33
2017-08-04T09:29:42.858Z,61.40
2017-08-04T09:32:10.454Z,59.99
2017-08-04T09:34:38.089Z,61.63
2017-08-04T09:37:06.084Z,60.18
2017-08-04T09:39:33.813Z,61.89
2017-08-04T09:42:03.652Z,60.43
2017-08-04T09:44:35.609Z,60.12
2017-08-04T09:47:03.231Z,61.30
2017-08-04T09:49:30.864Z,60.31
2017-08-04T09:51:59.044Z,61.59
2017-08-04T09:54:26.663Z,61.34
2017-08-04T09:56:54.284Z,61.15
2017-08-04T09:59:22.145Z,62.05
2017-08-04T10:01:49.765Z,62.68
2017-08-04T10:04:17.648Z,62.14
2017-08-04T10:06:45.277Z,61.80
2017-08-04T10:09:13.049Z,60.65
2017-08-04T10:11:41.026Z,59.16
2017-08-04T10:14:08.635Z,57.49
2017-08-04T10:16:36.257Z,57.82
2017-08-04T10:19:03.888Z,55.08
2017-08-04T10:21:31.524Z,56.28
2017-08-04T10:23:59.143Z,55.89
2017-08-04T10:26:26.859Z,57.42
2017-08-04T10:28:54.629Z,58.05
2017-08-04T10:31:22.444Z,58.23
2017-08-04T10:33:50.312Z,55.95
2017-08-04T10:36:18.136Z,54.70
2017-08-04T10:38:46.023Z,55.32
2017-08-04T10:41:13.896Z,55.70
2017-08-04T10:43:41.780Z,56.36
2017-08-04T10:46:09.580Z,57.26
2017-08-04T10:48:37.442Z,57.39
2017-08-04T10:51:05.267Z,58.57
2017-08-04T10:53:33.092Z,57.51
2017-08-04T10:56:00.959Z,59.43
2017-08-04T10:58:28.806Z,57.65
2017-08-04T11:00:56.694Z,58.16
2017-08-04T11:03:24.518Z,57.42
2017-08-04T11:05:52.459Z,55.31
2017-08-04T11:08:20.229Z,57.86
2017-08-04T11:10:48.071Z,54.82
2017-08-04T11:13:15.813Z,56.36
2017-08-04T11:15:43.610Z,56.90
2017-08-04T11:18:11.363Z,55.75
2017-08-04T11:20:39.164Z,55.12
2017-08-04T11:23:07.033Z,57.08
2017-08-04T11:25:34.877Z,54.51
2017-08-04T11:28:02.771Z,54.53
2017-08-04T11:30:30.584Z,55.27
2017-08-04T11:32:58.372Z,56.17
2017-08-04T11:35:26.192Z,58.12
2017-08-04T11:37:54.101Z,59.67
2017-08-04T11:40:21.939Z,58.45
2017-08-04T11:42:49.746Z,54.59
2017-08-04T11:45:17.575Z,54.15
2017-08-04T11:47:45.724Z,54.21
2017-08-04T11:50:13.608Z,54.34
2017-08-04T11:52:42.222Z,52.83
2017-08-04T11:55:10.033Z,54.31
2017-08-04T11:57:37.848Z,53.76
2017-08-04T12:00:05.636Z,54.73
2017-08-04T12:02:33.423Z,54.27
2017-08-04T12:05:01.319Z,55.19
2017-08-04T12:07:29.136Z,54.90
2017-08-04T12:09:56.872Z,54.68
2017-08-04T12:12:24.764Z,55.78
2017-08-04T12:14:52.569Z,53.25
2017-08-04T12:17:20.351Z,51.45
2017-08-04T12:19:48.169Z,53.98
2017-08-04T12:22:16.039Z,52.30
2017-08-04T12:24:43.907Z,52.73
2017-08-04T12:27:11.758Z,53.91
2017-08-04T12:29:39.609Z,52.90
2017-08-04T12:32:07.530Z,53.47
2017-08-04T12:34:35.352Z,55.17
2017-08-04T12:37:03.140Z,53.75
2017-08-04T12:39:31.048Z,53.86
2017-08-04T12:41:58.875Z,54.42
2017-08-04T12:44:26.760Z,53.84
2017-08-04T12:46:54.649Z,53.00
2017-08-04T12:49:22.538Z,52.74
2017-08-04T12:51:50.372Z,51.15
2017-08-04T12:54:18.259Z,52.68
2017-08-04T12:56:46.093Z,53.53
2017-08-04T12:59:13.999Z,53.80
2017-08-04T13:01:41.806Z,55.88
2017-08-04T13:04:09.673Z,52.74
2017-08-04T13:06:37.490Z,52.70
2017-08-04T13:09:05.360Z,51.26
2017-08-04T13:11:33.300Z,50.86
2017-08-04T13:14:01.136Z,51.46
2017-08-04T13:16:29.021Z,53.79
2017-08-04T13:18:56.855Z,52.21
2017-08-04T13:21:24.753Z,53.07
2017-08-04T13:23:52.531Z,53.98
2017-08-04T13:26:20.407Z,54.12
2017-08-04T13:28:48.268Z,55.95
2017-08-04T13:31:16.148Z,55.28
2017-08-04T13:33:43.978Z,54.94
2017-08-04T13:36:11.876Z,53.82
2017-08-04T13:38:50.433Z,53.91
2017-08-04T13:41:18.328Z,57.01
2017-08-04T13:43:46.165Z,53.51
2017-08-04T13:46:13.991Z,54.24
2017-08-04T13:48:41.877Z,55.26
2017-08-04T13:51:09.708Z,55.27
2017-08-04T13:53:37.640Z,55.12
2017-08-04T13:56:05.464Z,54.59
2017-08-04T13:58:33.424Z,54.30
2017-08-04T14:01:01.307Z,55.65
2017-08-04T14:03:29.227Z,56.90
2017-08-04T14:05:57.048Z,57.08
2017-08-04T14:08:24.907Z,55.80
2017-08-04T14:10:52.765Z,55.97
2017-08-04T14:13:20.679Z,55.58
2017-08-04T14:15:48.597Z,56.25
2017-08-04T14:18:16.472Z,53.84
2017-08-04T14:20:44.320Z,52.99
2017-08-04T14:23:12.191Z,53.22
2017-08-04T14:25:40.009Z,54.16
2017-08-04T14:28:07.823Z,55.00
2017-08-04T14:30:35.719Z,55.48
2017-08-04T14:33:03.445Z,55.85
2017-08-04T14:35:31.211Z,56.80
2017-08-04T14:37:58.946Z,57.50
2017-08-04T14:40:26.819Z,58.23
2017-08-04T14:42:54.530Z,57.32
2017-08-04T14:45:22.298Z,58.36
2017-08-04T14:47:50.044Z,58.71
2017-08-04T14:50:17.828Z,58.05
2017-08-04T14:52:45.541Z,58.15
2017-08-04T14:55:13.315Z,57.96
2017-08-04T14:57:41.063Z,58.80
2017-08-04T15:00:08.823Z,58.90
2017-08-04T15:02:36.622Z,57.61
2017-08-04T15:05:04.447Z,56.84
2017-08-04T15:07:32.220Z,57.49
2017-08-04T15:09:59.983Z,58.35
2017-08-04T15:12:27.759Z,57.65
2017-08-04T15:14:55.489Z,56.74
2017-08-04T15:17:23.329Z,56.69
2017-08-04T15:19:51.046Z,57.85
2017-08-04T15:22:18.787Z,58.28
2017-08-04T15:24:46.509Z,58.19
2017-08-04T15:27:14.281Z,57.88
2017-08-04T15:29:42.014Z,56.85
2017-08-04T15:32:09.740Z,56.94
2017-08-04T15:34:37.584Z,57.02
2017-08-04T15:37:05.301Z,56.26
2017-08-04T15:39:33.107Z,56.53
2017-08-04T15:42:00.820Z,57.23
2017-08-04T15:44:28.580Z,56.71
2017-08-04T15:46:56.289Z,57.99
2017-08-04T15:49:24.206Z,58.20
2017-08-04T15:51:51.967Z,58.95
2017-08-04T15:54:19.759Z,59.79
2017-08-04T15:56:47.498Z,58.98
2017-08-04T15:59:15.298Z,58.47
2017-08-04T16:01:43.142Z,59.60
2017-08-04T16:04:11.013Z,59.64
2017-08-04T16:06:38.854Z,59.43
2017-08-04T16:09:06.746Z,58.84
2017-08-04T16:11:34.600Z,59.80
2017-08-04T16:14:02.407Z,60.15
2017-08-04T16:16:30.487Z,60.69
2017-08-04T16:18:58.352Z,60.13
2017-08-04T16:21:26.223Z,61.20
2017-08-04T16:23:53.941Z,61.70
2017-08-04T16:26:21.816Z,61.84
2017-08-04T16:28:49.662Z,61.60
2017-08-04T16:31:17.571Z,61.67
2017-08-04T16:33:45.392Z,61.69
2017-08-04T16:36:13.263Z,61.82
2017-08-04T16:38:41.091Z,60.99
2017-08-04T16:41:08.985Z,61.29
2017-08-04T16:43:36.840Z,61.67
2017-08-04T16:46:04.747Z,61.50
2017-08-04T16:48:32.624Z,61.80
2017-08-04T16:51:00.517Z,60.73
2017-08-04T16:53:28.349Z,61.93
2017-08-04T16:55:56.064Z,62.02
2017-08-04T16:58:23.866Z,61.45
2017-08-04T17:00:51.614Z,62.10
2017-08-04T17:03:19.433Z,62.36
2017-08-04T17:05:47.143Z,62.05
2017-08-04T17:08:14.922Z,63.35
2017-08-04T17:10:42.759Z,62.02
2017-08-04T17:13:10.635Z,62.08
2017-08-04T17:15:38.498Z,62.16
2017-08-04T17:18:06.377Z,61.48
2017-08-04T17:20:34.285Z,61.95
2017-08-04T17:23:02.125Z,62.63
2017-08-04T17:25:29.996Z,60.73
2017-08-04T17:27:57.858Z,60.63
2017-08-04T17:30:25.717Z,61.27
2017-08-04T17:32:53.537Z,60.86
2017-08-04T17:35:21.434Z,61.09
2017-08-04T17:37:49.283Z,60.65
2017-08-04T17:40:17.099Z,61.78
2017-08-04T17:42:44.970Z,62.36
2017-08-04T17:45:12.820Z,62.02
2017-08-04T17:47:40.685Z,62.00
2017-08-04T17:50:08.541Z,61.96
2017-08-04T17:52:36.434Z,62.54
2017-08-04T17:55:04.274Z,61.92
2017-08-04T17:57:32.220Z,62.17
2017-08-04T18:00:00.089Z,61.12
2017-08-04T18:02:39.669Z,59.92
2017-08-04T18:05:07.507Z,57.77
2017-08-04T18:07:35.379Z,55.82
2017-08-04T18:10:03.232Z,55.83
2017-08-04T18:12:31.126Z,58.85
2017-08-04T18:14:58.955Z,60.60
2017-08-04T18:17:26.865Z,62.73
2017-08-04T18:19:54.714Z,63.56
2017-08-04T18:22:22.548Z,63.92
2017-08-04T18:24:50.339Z,64.72
2017-08-04T18:27:18.183Z,65.37
2017-08-04T18:29:46.047Z,66.29
2017-08-04T18:32:13.882Z,67.06
2017-08-04T18:34:41.779Z,66.26
2017-08-04T18:37:09.609Z,65.29
2017-08-04T18:39:37.506Z,63.98
2017-08-04T18:42:05.326Z,63.64
2017-08-04T18:44:33.175Z,64.05
2017-08-04T18:47:01.020Z,64.79
2017-08-04T18:49:28.873Z,65.90
2017-08-04T18:51:56.707Z,67.08
2017-08-04T18:54:24.535Z,67.37
2017-08-04T18:56:52.424Z,68.02
2017-08-04T18:59:20.331Z,69.03
2017-08-04T19:01:48.228Z,69.79
2017-08-04T19:04:16.085Z,69.87
2017-08-04T19:06:43.947Z,70.24
2017-08-04T19:09:11.766Z,71.12
2017-08-04T19:11:39.641Z,71.45
2017-08-04T19:14:07.545Z,71.92
2017-08-04T19:16:35.452Z,72.16
2017-08-04T19:19:03.301Z,72.61
2017-08-04T19:21:31.236Z,72.76
2017-08-04T19:23:58.986Z,73.27
2017-08-04T19:26:26.859Z,73.47
2017-08-04T19:28:54.704Z,73.76
2017-08-04T19:31:22.557Z,74.19
2017-08-04T19:33:50.416Z,74.30
2017-08-04T19:36:18.252Z,74.59
2017-08-04T19:38:46.117Z,74.78
2017-08-04T19:41:13.945Z,74.83
2017-08-04T19:43:41.803Z,75.89
2017-08-04T19:46:09.611Z,76.28
2017-08-04T19:48:37.466Z,76.89
2017-08-04T19:51:05.291Z,77.63
2017-08-04T19:53:33.164Z,77.90
2017-08-04T19:56:00.985Z,78.39
2017-08-04T19:58:28.967Z,78.86
2017-08-04T20:00:56.854Z,79.09
2017-08-04T20:03:24.713Z,78.74
2017-08-04T20:05:52.539Z,78.66
2017-08-04T20:08:20.355Z,78.86
2017-08-04T20:10:48.222Z,78.73
2017-08-04T20:13:16.044Z,78.69
2017-08-04T20:15:43.915Z,78.54
2017-08-04T20:18:11.743Z,78.57
2017-08-04T20:20:39.605Z,78.83
2017-08-04T20:23:07.420Z,78.50
2017-08-04T20:25:35.278Z,78.62
2017-08-04T20:28:03.115Z,79.14
2017-08-04T20:30:30.976Z,79.23
2017-08-04T20:32:58.808Z,79.04
2017-08-04T20:35:26.708Z,79.90
2017-08-04T20:37:54.517Z,79.34
2017-08-04T20:40:22.367Z,79.30
2017-08-04T20:42:50.178Z,79.38
2017-08-04T20:45:17.977Z,79.42
2017-08-04T20:47:45.859Z,79.45
2017-08-04T20:50:13.669Z,79.48
2017-08-04T20:52:41.547Z,79.65
2017-08-04T20:55:09.345Z,79.71
2017-08-04T20:57:37.216Z,80.06
2017-08-04T21:00:05.151Z,79.92
2017-08-04T21:02:33.020Z,80.05
2017-08-04T21:05:00.842Z,80.08
2017-08-04T21:07:28.732Z,80.16
2017-08-04T21:09:56.532Z,80.55
2017-08-04T21:12:24.391Z,80.82
2017-08-04T21:14:52.217Z,80.98
2017-08-04T21:17:20.091Z,81.06
2017-08-04T21:19:47.898Z,80.89
2017-08-04T21:22:15.724Z,80.64
2017-08-04T21:24:43.512Z,80.57
2017-08-04T21:27:11.325Z,80.61
2017-08-04T21:29:39.181Z,80.19
2017-08-04T21:32:06.976Z,80.09
2017-08-04T21:34:34.825Z,80.58
2017-08-04T21:37:02.638Z,80.62
2017-08-04T21:39:30.515Z,80.75
2017-08-04T21:41:58.354Z,80.48
2017-08-04T21:44:26.226Z,80.16
2017-08-04T21:46:54.062Z,80.80
2017-08-04T21:49:21.948Z,80.28
2017-08-04T21:51:49.757Z,80.46
2017-08-04T21:54:17.579Z,80.54
2017-08-04T21:56:45.462Z,81.01
2017-08-04T21:59:13.202Z,80.67
2017-08-04T22:01:40.970Z,80.80
2017-08-04T22:04:08.781Z,80.43
2017-08-04T22:06:36.653Z,80.16
2017-08-04T22:09:04.556Z,79.83
2017-08-04T22:11:32.432Z,80.47
2017-08-04T22:14:00.152Z,80.21
2017-08-04T22:16:27.981Z,80.16
2017-08-04T22:18:55.852Z,80.35
2017-08-04T22:21:23.672Z,80.35
2017-08-04T22:23:51.431Z,80.27
2017-08-04T22:26:19.270Z,80.21
2017-08-04T22:28:47.115Z,80.64
2017-08-04T22:31:14.933Z,80.75
2017-08-04T22:33:42.803Z,80.65
2017-08-04T22:36:10.676Z,80.75
2017-08-04T22:38:38.536Z,80.83
2017-08-04T22:41:06.347Z,80.68
2017-08-04T22:43:34.148Z,80.85
2017-08-04T22:46:01.998Z,81.01
2017-08-04T22:48:29.812Z,80.91
2017-08-04T22:50:57.665Z,81.48
2017-08-04T22:53:25.487Z,81.65
2017-08-04T22:55:53.342Z,81.80
2017-08-04T22:58:21.218Z,81.94
2017-08-04T23:00:49.069Z,82.02
2017-08-04T23:03:16.895Z,82.20
2017-08-04T23:05:44.747Z,82.18
2017-08-04T23:08:12.574Z,82.21
2017-08-04T23:10:40.432Z,81.86
2017-08-04T23:13:08.149Z,81.65
2017-08-04T23:15:35.951Z,81.63
2017-08-04T23:18:03.813Z,81.56
2017-08-04T23:20:31.612Z,81.67
2017-08-04T23:22:59.463Z,81.72
2017-08-04T23:25:27.300Z,81.91
2017-08-04T23:27:55.194Z,82.03
2017-08-04T23:30:23.032Z,82.34
2017-08-04T23:32:50.856Z,82.51
2017-08-04T23:35:18.656Z,82.53
2017-08-04T23:37:46.521Z,82.48
2017-08-04T23:40:14.339Z,82.70
2017-08-04T23:42:42.174Z,82.68
2017-08-04T23:45:09.969Z,82.68
2017-08-04T23:47:37.824Z,82.53
2017-08-04T23:50:05.635Z,82.29
2017-08-04T23:52:33.437Z,82.68
2017-08-04T23:55:01.272Z,82.69
2017-08-04T23:57:29.091Z,82.53
2017-08-04T23:59:56.983Z,82.43
